Welcome to our new website - Welkom op onze vernieuwde website - Bienvenue sur notre nouveau site web - Willkommen auf unserer neuen Website

U vindt ons ook hier:

Het Weer Aktueel



METAR rapporten vliegvelden

   
EHAM - Amsterdam/Schiph, Netherlands
Afstand tot: WNW 31 km
Gewijzigd: 25-08-2019 02:25
Helder  
Helder  
   Wind: NO 3.7 km/h
Wind: NO 3.7 km/h
Temperatuur: 18°C
Dauwpunt: 14°C
Vochtigheid: 78%
Barometer: 1018 hPa
Zicht: meer dan 10 km
Bewolking: Helder
EHAM 250025Z 05002KT CAVOK 18/14 Q1018 NOSIG
EHDL - Deelen Rnlafb, Netherlands
Afstand tot: OZO 48 km
Gewijzigd: 25-08-2019 02:55
Helder  
Helder  
   Wind: OZO 5.6 km/h
Wind: OZO 5.6 km/h
Temperatuur: 15°C
Dauwpunt: 11°C
Vochtigheid: 77%
Barometer: 1018 hPa
Bewolking: Helder
Zicht: meer dan 10 km
Bewolking: Helder
EHDL 250055Z AUTO 11003KT 9999 NCD 15/11 Q1018 BLU
EHRD - Rotterdam Airpor, Netherlands
Afstand tot: WZW 56 km
Gewijzigd: 25-08-2019 02:25
Gedeeltelijk bewolkt  
Gedeeltelijk bewolkt  
   Wind: Noorden 1.9 km/h
Wind: Noorden 1.9 km/h
Temperatuur: 16°C
Dauwpunt: 15°C
Vochtigheid: 94%
Barometer: 1018 hPa
Bewolking: Gedeeltelijk bewolkt
Zicht: meer dan 10 km
Bewolking: Gedeeltelijk bewolkt
EHRD 250025Z AUTO 36001KT 9999 NSC 16/15 Q1018 NOSIG
EHGR - Gilze-Rijen Rnla, Netherlands
Afstand tot: ZZW 70 km
Gewijzigd: 25-08-2019 02:55
Bewolking  
Bewolking  
   Wind: NO 3.7 km/h
Wind: NO 3.7 km/h
Temperatuur: 15°C
Dauwpunt: 13°C
Vochtigheid: 88%
Barometer: 1018 hPa
Bewolking: Bewolking
Zicht: meer dan 10 km
Bewolking: Bewolking 34000 ft
EHGR 250055Z AUTO 04002KT 9999 OVC340 15/13 Q1018 BLU
EHVK - Volkel Rnlafb, Netherlands
Afstand tot: ZZO 70 km
Gewijzigd: 25-08-2019 02:55
Helder  
Helder  
   Wind: NO 3.7 km/h
Wind: NO 3.7 km/h
Temperatuur: 16°C
Dauwpunt: 11°C
Vochtigheid: 72%
Barometer: 1018 hPa
Bewolking: Helder
Zicht: meer dan 10 km
Bewolking: Helder
EHVK 250055Z AUTO 05002KT 9999 NCD 16/11 Q1018 BLU
EHEH - Eindhoven Rnlafb, Netherlands
Afstand tot: Z 82 km
Gewijzigd: 25-08-2019 02:25
Helder  
Helder  
   Wind: Kalm
Wind: Kalm
Temperatuur: 16°C
Dauwpunt: 11°C
Vochtigheid: 72%
Barometer: 1018 hPa
Bewolking: Helder
Zicht: meer dan 10 km
Bewolking: Helder
EHEH 250025Z AUTO 00000KT 9999 NCD 16/11 Q1018 BLU
EHKD - De Kooy (navy), Netherlands
Afstand tot: NNW 87 km
Gewijzigd: 25-08-2019 02:25
Helder  
Helder  
   Wind: Oosten 9.3 km/h
Wind: Oosten 9.3 km/h
Temperatuur: 18°C
Dauwpunt: 16°C
Vochtigheid: 88%
Barometer: 1019 hPa
Bewolking: Helder
Zicht: meer dan 10 km
Bewolking: Helder
EHKD 250025Z AUTO 08005KT 9999 NCD 18/16 Q1019 BLU
EDLV - Niederrhein, Germany
Afstand tot: ZO 92 km
Gewijzigd: 24-08-2019 23:50
Verouderd
Helder  
Helder  
   Wind: varieert 1.9 km/h
Wind: varieert 1.9 km/h
Temperatuur: 20°C
Dauwpunt: 13°C
Vochtigheid: 64%
Barometer: 1019 hPa
Zicht: meer dan 10 km
Bewolking: Helder
EDLV 242150Z VRB01KT CAVOK 20/13 Q1019
EHWO - Woensdrecht Rnla, Netherlands
Afstand tot: ZW 100 km
Gewijzigd: 25-08-2019 02:55
Licht bewolkt  
Licht bewolkt  
   Wind: ONO 5.6 km/h
Wind: ONO 5.6 km/h
Temperatuur: 14°C
Dauwpunt: 12°C
Vochtigheid: 88%
Barometer: 1017 hPa
Bewolking: Licht bewolkt
Zicht: meer dan 10 km
Bewolking: Licht bewolkt 28000 ft
EHWO 250055Z AUTO 07003KT 9999 FEW280 14/12 Q1017 BLU

Script ontwikkeld door  Saratoga-weather.org Aangepast voor de template door  Weerstation Leuven

Apparatuur in gebruik:

Weerstation
Davis VP2

Weerprogramma
Meteobridge

Weercomputer
MB-Pro

Webleverancier
easyhosting

Davis VP2

Meteobridge

MB-Pro

easyhosting